Blue Horizons Flying Club, Inc.

Radar AviationWeather DUATS TFRs Wunderground Accuweather Weather.com

alt : Radar

TAFs

KJXN 162323Z 1700/1724 VRB03KT P6SM FEW050
   FM170100 VRB03KT P6SM SKC
   FM171400 25008KT P6SM SCT040
KFDY 162320Z 1700/1724 26006KT P6SM SKC
KTOL 162320Z 1700/1724 18003KT P6SM SKC
   FM171500 27006KT P6SM SKC
KCLE 162320Z 1700/1806 30006KT P6SM SKC
   FM171500 24006KT P6SM SCT040
KFWA 162320Z 1700/1724 00000KT P6SM FEW045
   FM171500 24006KT P6SM SCT040
   FM172100 30006KT P6SM SCT045
KDTW 162320Z 1700/1806 VRB04KT P6SM SCT050
   FM170300 VRB03KT P6SM FEW050
   FM171600 26009KT P6SM SCT250
   FM172200 29008KT P6SM FEW050 BKN250
   FM180200 VRB03KT P6SM FEW050

METARs

KDUH 162315Z AUTO 00000KT 10SM CLR 16/10 A3009 RMK AO2
KJXN 162256Z 27003KT 10SM FEW050 16/07 A3009 RMK AO2 SLP189 T01610072
KFWA 162254Z 29004KT 10SM FEW047 18/09 A3011 RMK AO2 SLP196 T01780089
KDTW 162253Z 25005KT 10SM SCT060 17/06 A3009 RMK AO2 SLP189 T01720056
KFDY 162253Z AUTO 26009KT 10SM SCT046 18/08 A3009 RMK AO2 SLP184 T01830078
KTDZ 162253Z AUTO 22003KT 10SM CLR 17/07 A3010 RMK AO2 SLP191 T01720067 TSNO
KTOL 162252Z 18003KT 10SM FEW055 16/09 A3009 RMK AO2 SLP190 T01610089
KCLE 162251Z 33005KT 10SM FEW040 16/09 A3011 RMK AO2 SLP197 T01560089

alt : Satellite

alt : TFRs